Time;durP1;ratioP1;P1;durP2;ratioP2;P2;SDS_P1;SDS_P2;PMS_P1;PMS_P2;Temp;Humidity;BMP_temperature;BMP_pressure;BME280_temperature;BME280_humidity;BME280_pressure;Samples;Min_cycle;Max_cycle;Signal;HPM_P1;HPM_P2
2024/01/07 00:27:41;;;;;;;14.70;11.98;;;7.20;99.90;;;;;;5007239;28;20300;-92
2024/01/07 00:30:07;;;;;;;14.83;11.83;;;;;;;;;;5004817;28;20185;-91
2024/01/07 00:32:33;;;;;;;13.48;10.77;;;7.20;99.90;;;;;;5003720;28;20179;-92
2024/01/07 00:35:06;;;;;;;13.90;10.97;;;;;;;;;;4994588;28;20211;-92
2024/01/07 00:37:34;;;;;;;15.07;10.45;;;7.20;99.90;;;;;;4995231;28;20236;-91
2024/01/07 00:40:00;;;;;;;13.43;10.32;;;8.90;99.90;;;;;;4991184;28;20188;-91
2024/01/07 00:42:26;;;;;;;14.43;10.85;;;8.40;99.90;;;;;;5008304;28;20510;-91
2024/01/07 00:50:03;;;;;;;12.30;9.73;;;7.10;99.90;;;;;;5607278;23;20234;-92
2024/01/07 00:52:28;;;;;;;13.50;10.97;;;7.20;99.90;;;;;;5022870;28;20203;-92
2024/01/07 00:54:54;;;;;;;14.17;10.40;;;7.80;99.90;;;;;;5510820;23;20499;-92
2024/01/07 06:41:30;;;;;;;10.52;9.43;;;7.00;99.90;;;;;;5104496;23;20254;-90
2024/01/07 06:43:56;;;;;;;10.83;9.37;;;8.60;99.90;;;;;;5007378;28;20744;-91
2024/01/07 06:46:22;;;;;;;11.82;9.68;;;7.50;99.90;;;;;;4996170;28;20185;-90
2024/01/07 06:48:48;;;;;;;11.37;8.83;;;6.50;99.90;;;;;;4984176;28;20181;-91
2024/01/07 06:51:15;;;;;;;12.13;9.17;;;7.40;99.90;;;;;;4981909;28;20196;-91
2024/01/07 06:58:41;;;;;;;12.93;10.63;;;6.60;99.90;;;;;;6047203;23;21133;-95
2024/01/07 07:01:07;;;;;;;12.97;10.30;;;6.70;99.90;;;;;;5929470;23;21989;-92
2024/01/07 07:03:32;;;;;;;11.70;8.93;;;6.70;99.90;;;;;;5850332;23;20284;-96
2024/01/07 07:08:33;;;;;;;11.27;8.85;;;6.50;99.90;;;;;;5129558;23;20227;-90
2024/01/07 07:11:01;;;;;;;11.73;10.30;;;7.30;99.90;;;;;;4998650;28;20188;-90
2024/01/07 07:13:26;;;;;;;10.82;9.52;;;7.60;99.90;;;;;;4999739;28;20187;-91
2024/01/07 07:15:52;;;;;;;10.33;9.20;;;;;;;;;;5029170;23;20223;-91
2024/01/07 07:18:18;;;;;;;10.83;9.73;;;6.30;99.90;;;;;;5001549;28;20215;-92
2024/01/07 07:20:44;;;;;;;12.05;10.80;;;6.60;99.90;;;;;;4997728;28;20455;-91
2024/01/07 07:23:09;;;;;;;18.03;10.53;;;5.90;99.90;;;;;;4998038;28;20193;-92
2024/01/07 07:25:35;;;;;;;10.90;9.80;;;;;;;;;;4973543;28;20212;-91
2024/01/07 07:28:01;;;;;;;12.23;8.97;;;6.10;99.90;;;;;;4985908;28;20196;-91
2024/01/07 07:30:26;;;;;;;10.10;9.10;;;5.70;99.90;;;;;;4976852;28;20429;-92
2024/01/07 07:32:53;;;;;;;11.20;9.43;;;5.00;99.90;;;;;;4969074;28;20332;-92
2024/01/07 07:35:19;;;;;;;10.85;9.55;;;;;;;;;;4976889;28;20200;-91
2024/01/07 07:37:44;;;;;;;11.32;9.18;;;6.10;99.90;;;;;;4992022;28;20170;-91
2024/01/07 07:47:55;;;;;;;10.50;8.93;;;6.00;99.90;;;;;;5022642;28;20222;-91
2024/01/07 07:50:21;;;;;;;10.87;8.80;;;4.90;99.90;;;;;;5005433;28;20175;-91
2024/01/07 07:52:47;;;;;;;10.18;8.30;;;;;;;;;;5012966;28;20223;-88
2024/01/07 07:55:13;;;;;;;10.77;8.77;;;6.00;99.90;;;;;;4998612;28;20210;-90
2024/01/07 07:57:38;;;;;;;8.67;7.77;;;5.40;99.90;;;;;;4999198;28;20200;-87
2024/01/07 08:00:11;;;;;;;9.00;7.95;;;6.00;99.90;;;;;;4980247;28;20679;-87
2024/01/07 08:02:36;;;;;;;14.18;8.55;;;5.90;99.90;;;;;;4977044;28;20549;-86
2024/01/07 08:05:03;;;;;;;8.80;7.00;;;6.00;99.90;;;;;;4978325;28;20215;-88
2024/01/07 08:07:29;;;;;;;10.40;7.80;;;6.00;99.90;;;;;;4976614;28;20183;-87
2024/01/07 08:09:56;;;;;;;8.83;7.90;;;5.80;99.90;;;;;;4987861;28;20240;-86
2024/01/07 08:12:22;;;;;;;8.85;7.95;;;6.20;99.90;;;;;;4971174;28;20982;-88
2024/01/07 08:14:48;;;;;;;8.30;6.60;;;6.00;99.90;;;;;;4979125;28;20635;-88
2024/01/07 08:17:13;;;;;;;10.03;7.97;;;5.90;99.90;;;;;;4977972;28;20191;-89
2024/01/07 08:19:39;;;;;;;7.93;7.00;;;5.90;99.90;;;;;;4977984;28;20203;-89
2024/01/07 08:22:09;;;;;;;6.77;6.10;;;6.40;99.90;;;;;;4977515;28;20207;-89
2024/01/07 08:24:34;;;;;;;8.07;7.18;;;6.00;99.90;;;;;;4975985;28;20224;-88
2024/01/07 08:27:01;;;;;;;7.70;6.60;;;6.20;99.90;;;;;;4980829;28;20195;-88
2024/01/07 08:29:26;;;;;;;7.57;6.68;;;6.00;99.90;;;;;;4983328;28;20223;-87
2024/01/07 08:31:52;;;;;;;6.67;5.97;;;6.30;99.90;;;;;;4978432;28;20231;-88
2024/01/07 08:34:18;;;;;;;6.30;5.70;;;5.80;99.90;;;;;;4982312;28;20262;-87
2024/01/07 08:36:43;;;;;;;7.70;6.90;;;5.90;99.90;;;;;;4979241;28;20450;-88
2024/01/07 08:39:10;;;;;;;8.67;6.77;;;6.00;99.90;;;;;;4983922;28;20241;-88
2024/01/07 08:41:35;;;;;;;7.35;6.15;;;6.40;99.90;;;;;;5011288;28;20176;-87
2024/01/07 08:44:02;;;;;;;8.03;6.40;;;5.80;99.90;;;;;;4985467;28;20222;-87
2024/01/07 08:46:28;;;;;;;7.53;6.15;;;6.00;99.90;;;;;;4988455;28;20207;-88
2024/01/07 08:48:53;;;;;;;10.63;8.30;;;5.70;99.90;;;;;;4984966;28;20266;-88
2024/01/07 08:51:19;;;;;;;8.73;6.83;;;5.70;99.90;;;;;;4980161;28;20192;-87
2024/01/07 08:53:44;;;;;;;8.70;6.50;;;5.60;99.90;;;;;;4986373;28;20189;-86
2024/01/07 08:56:11;;;;;;;7.77;6.43;;;6.50;99.90;;;;;;4983422;28;20190;-87
2024/01/07 08:58:37;;;;;;;7.60;6.15;;;6.10;99.90;;;;;;4983305;28;20681;-88
2024/01/07 09:01:03;;;;;;;9.00;6.20;;;6.00;99.90;;;;;;4985056;28;20180;-86
2024/01/07 09:03:28;;;;;;;9.00;6.73;;;5.60;99.90;;;;;;4987367;28;20190;-86
2024/01/07 09:05:56;;;;;;;7.90;6.53;;;5.50;99.90;;;;;;4978232;28;20211;-89
2024/01/07 09:08:22;;;;;;;7.85;7.07;;;6.10;99.90;;;;;;4980712;28;20188;-88
2024/01/07 09:10:48;;;;;;;8.68;7.65;;;5.50;99.90;;;;;;4986564;28;20184;-88
2024/01/07 09:13:13;;;;;;;7.47;6.67;;;6.00;99.90;;;;;;4981942;28;20203;-87
2024/01/07 09:15:39;;;;;;;7.13;6.43;;;5.70;99.90;;;;;;4985962;28;20736;-87
2024/01/07 09:18:05;;;;;;;8.40;5.97;;;6.20;99.90;;;;;;4989130;28;20190;-88
2024/01/07 09:20:31;;;;;;;6.77;6.03;;;5.60;99.90;;;;;;4982795;28;20470;-88
2024/01/07 09:22:57;;;;;;;5.65;5.05;;;5.80;99.90;;;;;;4981906;28;20478;-86
2024/01/07 09:25:22;;;;;;;5.13;4.63;;;5.80;99.90;;;;;;4985033;28;20238;-87
2024/01/07 09:27:48;;;;;;;4.23;3.83;;;5.70;99.90;;;;;;4981039;28;20630;-88
2024/01/07 09:30:15;;;;;;;4.10;3.70;;;5.80;99.90;;;;;;4984912;28;20715;-88
2024/01/07 09:32:41;;;;;;;4.80;4.30;;;5.70;99.90;;;;;;4984717;28;20195;-87
2024/01/07 09:35:07;;;;;;;4.95;4.40;;;7.50;99.90;;;;;;4980766;28;20302;-88
2024/01/07 09:37:33;;;;;;;5.20;4.33;;;6.30;99.90;;;;;;4971491;28;20688;-88
2024/01/07 09:39:58;;;;;;;5.97;4.37;;;5.90;99.90;;;;;;4995575;28;20438;-89
2024/01/07 09:42:24;;;;;;;5.37;4.33;;;5.70;99.90;;;;;;5002578;28;20202;-88
2024/01/07 09:44:51;;;;;;;5.83;4.73;;;5.60;99.90;;;;;;5001954;28;20234;-86
2024/01/07 09:47:18;;;;;;;5.20;4.40;;;5.70;99.90;;;;;;4983346;28;20234;-85
2024/01/07 09:49:44;;;;;;;5.20;4.70;;;5.70;99.90;;;;;;4988399;28;20191;-86
2024/01/07 09:52:11;;;;;;;5.05;4.15;;;6.90;99.90;;;;;;4996669;28;20202;-86
2024/01/07 09:54:38;;;;;;;5.28;4.15;;;6.00;99.90;;;;;;4998360;28;20203;-87
2024/01/07 09:57:07;;;;;;;4.88;4.35;;;5.90;99.90;;;;;;5010110;28;20286;-86
2024/01/07 09:59:36;;;;;;;5.25;4.60;;;5.80;99.90;;;;;;5005833;28;20230;-88
2024/01/07 10:02:02;;;;;;;5.20;4.15;;;5.80;99.90;;;;;;4991224;28;20196;-88
2024/01/07 10:04:31;;;;;;;4.30;3.90;;;5.80;99.90;;;;;;4985327;28;20625;-89
2024/01/07 10:06:57;;;;;;;5.50;4.68;;;5.80;99.90;;;;;;4989431;28;20184;-87
2024/01/07 10:09:25;;;;;;;5.67;4.80;;;5.60;99.90;;;;;;4988243;28;20187;-86
2024/01/07 10:11:51;;;;;;;5.82;4.80;;;5.50;99.90;;;;;;4983920;28;20447;-87
2024/01/07 10:14:16;;;;;;;5.17;4.27;;;5.50;99.90;;;;;;4995193;28;20209;-86
2024/01/07 10:16:42;;;;;;;5.13;4.63;;;6.10;99.90;;;;;;5008857;28;20195;-87
2024/01/07 10:19:07;;;;;;;6.10;5.50;;;5.60;99.90;;;;;;5008173;28;20175;-87
2024/01/07 10:21:34;;;;;;;8.83;5.53;;;5.70;99.90;;;;;;5001731;28;20223;-89
2024/01/07 10:24:13;;;;;;;5.95;5.35;;;5.40;99.90;;;;;;5044564;23;21311;-89
2024/01/07 10:26:39;;;;;;;6.38;5.20;;;5.50;99.90;;;;;;4983379;28;20204;-87
2024/01/07 10:29:05;;;;;;;6.75;5.40;;;5.50;99.90;;;;;;4966801;28;20192;-88
2024/01/07 10:31:35;;;;;;;4.88;4.30;;;5.10;99.90;;;;;;4961737;28;20187;-89
2024/01/07 10:34:00;;;;;;;5.45;4.85;;;5.30;99.90;;;;;;4963085;28;20208;-88
2024/01/07 10:36:26;;;;;;;6.60;4.73;;;;;;;;;;4958130;28;20197;-90
2024/01/07 10:38:54;;;;;;;6.20;5.20;;;5.20;99.90;;;;;;4946012;29;20197;-86
2024/01/07 10:41:20;;;;;;;5.65;4.85;;;5.40;99.90;;;;;;4948045;29;20192;-89
2024/01/07 10:43:47;;;;;;;4.93;4.43;;;5.50;99.90;;;;;;4948835;29;20194;-89
2024/01/07 10:46:14;;;;;;;6.65;5.90;;;5.60;99.90;;;;;;4953582;29;20475;-86
2024/01/07 10:48:53;;;;;;;5.28;4.35;;;5.40;99.90;;;;;;4969757;28;20213;-86
2024/01/07 10:51:21;;;;;;;6.70;5.20;;;5.20;99.90;;;;;;4970380;28;20708;-87
2024/01/07 10:53:55;;;;;;;7.22;5.40;;;5.20;99.90;;;;;;4952441;29;20192;-86
2024/01/07 10:56:23;;;;;;;7.25;5.85;;;4.80;99.90;;;;;;4951210;28;20191;-87
2024/01/07 10:58:54;;;;;;;5.95;5.32;;;4.80;99.90;;;;;;4948992;28;20279;-87
2024/01/07 11:01:21;;;;;;;7.13;5.53;;;;;;;;;;4955669;29;20700;-87
2024/01/07 11:03:56;;;;;;;7.20;5.80;;;5.20;99.90;;;;;;4970369;28;20184;-87
2024/01/07 11:06:36;;;;;;;6.15;5.55;;;5.40;99.90;;;;;;4959158;28;20188;-86
2024/01/07 11:09:35;;;;;;;8.73;6.40;;;5.60;99.90;;;;;;4948266;29;20270;-87
2024/01/07 11:12:01;;;;;;;6.30;5.20;;;5.10;99.90;;;;;;4951173;28;20191;-87
2024/01/07 11:14:53;;;;;;;6.20;5.05;;;5.00;99.90;;;;;;4949786;29;20287;-87
2024/01/07 11:17:39;;;;;;;7.25;5.70;;;4.60;99.90;;;;;;4951470;29;20242;-86
2024/01/07 11:20:06;;;;;;;4.90;4.40;;;5.30;99.90;;;;;;4933333;29;20658;-86
2024/01/07 11:22:32;;;;;;;6.60;5.50;;;5.10;99.90;;;;;;4966243;28;20189;-87
2024/01/07 11:24:59;;;;;;;7.53;5.82;;;5.00;99.90;;;;;;4954323;29;20690;-87
2024/01/07 11:27:28;;;;;;;6.80;5.53;;;5.50;99.90;;;;;;4955703;29;20189;-87
2024/01/07 11:29:58;;;;;;;6.65;5.90;;;5.20;99.90;;;;;;4953184;29;20692;-87
2024/01/07 11:32:28;;;;;;;5.88;5.28;;;5.10;99.90;;;;;;4953175;29;20189;-86
2024/01/07 11:34:56;;;;;;;6.20;5.47;;;6.60;99.90;;;;;;4953418;29;20207;-87
2024/01/07 11:37:22;;;;;;;6.13;5.53;;;5.20;99.90;;;;;;4955878;28;20568;-87
2024/01/07 11:39:51;;;;;;;5.97;4.75;;;5.40;99.90;;;;;;4950203;28;20249;-87
2024/01/07 11:42:16;;;;;;;7.13;5.20;;;5.60;99.90;;;;;;4948023;29;20192;-87
2024/01/07 11:44:49;;;;;;;5.93;5.33;;;5.30;99.90;;;;;;4950704;29;20229;-87
2024/01/07 11:47:19;;;;;;;5.78;5.15;;;5.10;99.90;;;;;;4952011;28;20283;-87
2024/01/07 11:49:46;;;;;;;8.23;5.13;;;5.70;99.90;;;;;;4938690;29;20332;-87
2024/01/07 11:52:11;;;;;;;6.75;5.65;;;5.10;99.90;;;;;;4966427;28;20186;-86
2024/01/07 11:54:39;;;;;;;6.77;5.07;;;5.00;99.90;;;;;;4941154;29;20241;-86
2024/01/07 11:57:09;;;;;;;6.38;5.35;;;5.00;99.90;;;;;;4956374;28;20805;-86
2024/01/07 11:59:36;;;;;;;6.32;5.28;;;5.40;99.90;;;;;;4942851;28;20200;-86
2024/01/07 12:02:04;;;;;;;5.63;5.00;;;4.90;99.90;;;;;;4964702;28;20193;-87
2024/01/07 12:04:30;;;;;;;5.63;5.00;;;4.80;99.90;;;;;;4961498;29;20220;-86
2024/01/07 12:06:56;;;;;;;6.90;5.68;;;5.00;99.90;;;;;;4960701;29;20188;-86
2024/01/07 12:09:21;;;;;;;7.27;5.80;;;4.90;99.90;;;;;;4970996;28;20339;-87
2024/01/07 12:11:47;;;;;;;6.93;5.90;;;5.50;99.90;;;;;;4964482;29;20452;-85
2024/01/07 12:14:14;;;;;;;6.30;5.43;;;5.10;99.90;;;;;;4944845;29;20320;-86
2024/01/07 12:16:39;;;;;;;6.88;5.70;;;5.20;99.90;;;;;;4948890;29;20196;-87
2024/01/07 12:19:05;;;;;;;7.43;6.20;;;5.50;99.90;;;;;;4945066;29;20696;-87
2024/01/07 12:21:30;;;;;;;8.00;6.50;;;4.90;99.90;;;;;;4951722;28;20189;-87
2024/01/07 12:23:57;;;;;;;6.90;6.20;;;5.00;99.90;;;;;;4963099;28;20247;-87
2024/01/07 12:26:27;;;;;;;6.78;5.95;;;5.20;99.90;;;;;;4938433;29;20261;-86
2024/01/07 12:28:59;;;;;;;6.60;5.75;;;5.40;99.90;;;;;;4947672;28;20185;-87
2024/01/07 12:31:28;;;;;;;7.38;6.55;;;5.20;99.90;;;;;;4952459;29;20191;-87
2024/01/07 12:33:57;;;;;;;7.95;7.13;;;5.00;99.90;;;;;;4952982;29;20687;-87
2024/01/07 12:36:23;;;;;;;8.20;7.40;;;5.20;99.90;;;;;;4951059;29;20552;-85
2024/01/07 12:38:51;;;;;;;7.03;6.30;;;5.30;99.90;;;;;;4950123;28;20235;-85
2024/01/07 12:41:17;;;;;;;7.00;6.30;;;5.30;99.90;;;;;;4943963;29;20196;-87
2024/01/07 12:43:43;;;;;;;7.97;6.53;;;4.70;99.90;;;;;;4945628;29;20211;-86
2024/01/07 12:46:09;;;;;;;8.57;7.10;;;4.80;99.90;;;;;;4946690;29;20192;-86
2024/01/07 12:48:34;;;;;;;8.03;7.20;;;5.20;99.90;;;;;;4952604;29;20197;-86
2024/01/07 12:51:00;;;;;;;9.17;7.60;;;4.80;99.90;;;;;;4962010;28;20181;-85
2024/01/07 12:53:27;;;;;;;8.90;7.32;;;5.10;99.90;;;;;;4983950;28;20190;-86
2024/01/07 12:55:53;;;;;;;8.82;7.20;;;4.70;99.90;;;;;;4947945;29;20287;-86
2024/01/07 12:58:21;;;;;;;10.43;6.60;;;5.10;99.90;;;;;;4943589;29;20193;-86
2024/01/07 13:00:47;;;;;;;8.35;7.43;;;4.60;99.90;;;;;;4954150;28;20744;-86
2024/01/07 13:03:19;;;;;;;7.53;6.82;;;4.80;99.90;;;;;;4951537;29;20199;-85
2024/01/07 13:05:46;;;;;;;8.48;7.57;;;4.70;99.90;;;;;;4948478;29;20267;-85
2024/01/07 13:08:12;;;;;;;7.72;6.60;;;5.20;99.90;;;;;;4953857;28;20552;-85
2024/01/07 13:10:38;;;;;;;8.02;7.22;;;4.60;99.90;;;;;;4970443;28;20184;-86
2024/01/07 13:13:03;;;;;;;8.70;7.80;;;4.80;99.90;;;;;;4959481;29;20210;-86
2024/01/07 13:15:29;;;;;;;9.23;7.23;;;5.10;99.90;;;;;;4966703;28;20273;-86
2024/01/07 13:17:55;;;;;;;7.47;6.67;;;4.50;99.90;;;;;;4948313;29;20201;-86
2024/01/07 13:20:20;;;;;;;7.97;7.07;;;4.90;99.90;;;;;;4951426;29;20187;-87
2024/01/07 13:22:47;;;;;;;9.03;7.30;;;;;;;;;;4948119;29;20202;-86
2024/01/07 13:25:12;;;;;;;8.90;7.43;;;4.40;99.90;;;;;;4950362;29;20749;-86
2024/01/07 13:27:51;;;;;;;10.20;7.70;;;4.50;99.90;;;;;;4944725;29;20183;-86
2024/01/07 13:30:17;;;;;;;8.25;7.45;;;4.90;99.90;;;;;;4932860;29;20247;-85
2024/01/07 13:32:44;;;;;;;10.40;7.77;;;4.00;99.90;;;;;;4950156;28;20191;-85
2024/01/07 13:35:10;;;;;;;9.55;7.95;;;5.20;99.90;;;;;;4946674;29;20214;-88
2024/01/07 13:37:37;;;;;;;9.90;8.43;;;3.50;99.90;;;;;;4951337;28;20338;-87
2024/01/07 13:40:10;;;;;;;9.27;7.60;;;5.40;99.90;;;;;;4962684;28;20208;-87
2024/01/07 13:42:37;;;;;;;9.05;7.70;;;4.00;99.90;;;;;;4964412;28;20280;-90
2024/01/07 13:45:43;;;;;;;8.43;6.93;;;5.40;99.90;;;;;;4946171;29;20227;-89
2024/01/07 13:48:09;;;;;;;10.20;8.30;;;;;;;;;;4935879;29;20210;-88
2024/01/07 13:50:36;;;;;;;10.70;9.43;;;4.00;99.90;;;;;;4948393;28;20198;-88
2024/01/07 13:53:15;;;;;;;12.05;9.40;;;4.00;99.90;;;;;;4949178;29;20605;-88
2024/01/07 13:56:01;;;;;;;9.60;7.70;;;4.10;99.90;;;;;;4964705;28;20243;-90
2024/01/07 13:58:46;;;;;;;10.18;8.73;;;5.10;99.90;;;;;;4937150;29;20249;-87
2024/01/07 14:04:34;;;;;;;12.48;7.38;;;4.60;99.90;;;;;;4966910;28;20295;-87
2024/01/07 14:06:59;;;;;;;14.00;8.37;;;6.10;99.90;;;;;;4972595;29;20192;-88
2024/01/07 14:12:53;;;;;;;10.40;8.70;;;4.30;99.90;;;;;;4971171;28;20195;-87
2024/01/07 14:15:21;;;;;;;9.88;8.70;;;4.40;99.90;;;;;;4964458;29;20223;-88
2024/01/07 14:18:14;;;;;;;11.77;9.50;;;4.40;99.90;;;;;;4971919;29;20199;-88
2024/01/07 14:20:45;;;;;;;9.32;7.93;;;5.40;99.90;;;;;;4964745;28;20176;-87
2024/01/07 14:23:19;;;;;;;10.25;7.85;;;4.20;99.90;;;;;;4967046;28;20183;-88
2024/01/07 14:26:19;;;;;;;12.50;9.20;;;3.10;99.90;;;;;;4972554;29;20226;-88
2024/01/07 14:28:45;;;;;;;10.30;8.05;;;4.40;99.90;;;;;;4975404;28;20237;-88
2024/01/07 14:31:11;;;;;;;10.43;9.23;;;;;;;;;;4955672;29;20201;-86
2024/01/07 14:39:21;;;;;;;12.35;9.10;;;4.30;99.90;;;;;;5755375;23;20694;-88
2024/01/07 14:41:57;;;;;;;;;;;;;;;;;;;;;
2024/01/07 14:46:58;;;;;;;10.30;8.60;;;;;;;;;;5750223;23;20229;-88
2024/01/07 14:49:25;;;;;;;11.10;9.90;;;;;;;;;;4976374;28;20744;-89
2024/01/07 14:51:50;;;;;;;11.18;9.60;;;3.20;99.90;;;;;;4976150;28;20496;-88
2024/01/07 14:54:17;;;;;;;12.60;9.80;;;;;;;;;;4974297;28;20722;-89
2024/01/07 14:56:42;;;;;;;12.57;10.38;;;3.20;99.90;;;;;;4958973;28;20211;-89
2024/01/07 14:59:11;;;;;;;11.97;10.07;;;4.90;99.90;;;;;;4956484;28;20212;-88
2024/01/07 15:01:39;;;;;;;14.27;10.50;;;4.60;99.90;;;;;;4952697;28;20182;-88
2024/01/07 15:04:04;;;;;;;11.82;10.23;;;4.60;99.90;;;;;;4965002;28;20289;-88
2024/01/07 15:06:30;;;;;;;10.73;8.97;;;;;;;;;;4974262;28;20217;-87
2024/01/07 15:08:56;;;;;;;13.02;10.10;;;3.20;99.90;;;;;;4957467;28;20181;-88
2024/01/07 15:11:22;;;;;;;12.20;9.20;;;;;;;;;;4956600;28;20185;-90
2024/01/07 15:13:48;;;;;;;11.25;9.20;;;;;;;;;;4954196;28;20187;-88
2024/01/07 15:16:16;;;;;;;11.70;9.67;;;3.10;99.90;;;;;;4966829;28;20223;-87
2024/01/07 15:18:42;;;;;;;11.93;9.15;;;;;;;;;;4978735;28;20455;-88
2024/01/07 15:21:11;;;;;;;10.82;8.50;;;;;;;;;;4957795;28;20198;-88
2024/01/07 15:23:36;;;;;;;14.05;9.35;;;3.00;99.90;;;;;;4962799;28;20217;-87
2024/01/07 15:26:05;;;;;;;13.43;10.00;;;;;;;;;;4974839;28;20222;-87
2024/01/07 15:28:31;;;;;;;9.80;8.70;;;;;;;;;;4975893;28;20195;-87
2024/01/07 15:34:18;;;;;;;12.18;9.25;;;3.40;99.90;;;;;;4955180;28;20216;-87
2024/01/07 15:36:44;;;;;;;12.13;9.10;;;;;;;;;;4945072;28;20190;-87
2024/01/07 15:39:18;;;;;;;10.40;8.57;;;;;;;;;;4959257;28;20189;-88
2024/01/07 15:41:44;;;;;;;10.60;8.85;;;3.00;99.90;;;;;;4954970;28;20190;-88
2024/01/07 15:44:09;;;;;;;14.17;9.83;;;3.00;99.90;;;;;;4939306;28;20236;-88
2024/01/07 15:46:35;;;;;;;13.90;9.30;;;2.90;99.90;;;;;;4939168;29;20601;-87
2024/01/07 15:49:00;;;;;;;11.17;9.20;;;3.10;99.90;;;;;;4956955;28;20185;-87
2024/01/07 15:51:26;;;;;;;12.60;9.80;;;3.30;99.90;;;;;;4955719;28;20280;-87
2024/01/07 15:53:53;;;;;;;13.70;9.97;;;;;;;;;;4954100;28;20194;-88
2024/01/07 15:56:19;;;;;;;12.60;10.45;;;;;;;;;;4955219;28;20213;-88
2024/01/07 15:58:45;;;;;;;14.15;9.90;;;2.60;99.90;;;;;;4964295;28;20165;-87
2024/01/07 16:01:11;;;;;;;12.68;9.40;;;;;;;;;;4978008;28;20212;-87
2024/01/07 16:03:37;;;;;;;11.98;9.25;;;;;;;;;;4956998;28;20196;-87
2024/01/07 16:06:06;;;;;;;10.05;8.80;;;2.40;99.90;;;;;;4942236;29;20209;-87
2024/01/07 16:08:32;;;;;;;12.70;9.73;;;;;;;;;;4957599;28;20193;-89
2024/01/07 16:10:58;;;;;;;12.30;9.70;;;2.50;99.90;;;;;;4957396;28;20178;-87
2024/01/07 16:13:26;;;;;;;11.43;9.85;;;2.30;99.90;;;;;;4955492;28;20228;-87
2024/01/07 16:15:53;;;;;;;13.63;9.77;;;1.50;99.90;;;;;;4958102;28;20705;-88
2024/01/07 16:18:35;;;;;;;12.93;9.90;;;1.50;99.90;;;;;;4954230;28;20191;-88
2024/01/07 16:21:04;;;;;;;16.17;12.13;;;;;;;;;;4955971;28;20201;-85
2024/01/07 16:23:30;;;;;;;14.77;10.48;;;;;;;;;;4955358;28;20277;-87
2024/01/07 16:25:56;;;;;;;13.63;10.20;;;;;;;;;;4956705;28;20217;-86
2024/01/07 16:28:22;;;;;;;12.48;9.80;;;2.30;99.90;;;;;;4959178;28;20265;-87
2024/01/07 16:41:39;;;;;;;12.35;8.60;;;;;;;;;;4778053;29;20195;-87
2024/01/07 16:46:52;;;;;;;10.40;9.00;;;1.00;99.90;;;;;;5118667;23;20235;-89
2024/01/07 16:49:20;;;;;;;11.00;7.60;;;3.10;99.90;;;;;;4997797;28;20732;-88
2024/01/07 16:51:46;;;;;;;11.18;9.23;;;3.20;99.90;;;;;;4989345;28;20208;-88
2024/01/07 16:54:12;;;;;;;9.47;8.40;;;;;;;;;;4986769;28;20196;-88
2024/01/07 16:56:38;;;;;;;11.98;9.75;;;;;;;;;;4981953;28;20196;-88
2024/01/07 16:59:03;;;;;;;12.57;9.80;;;2.20;99.90;;;;;;4984522;28;20196;-87
2024/01/07 17:01:29;;;;;;;11.70;8.50;;;2.10;99.90;;;;;;4977248;28;20193;-88
2024/01/07 17:03:56;;;;;;;11.90;8.67;;;;;;;;;;4976327;28;20193;-87
2024/01/07 17:06:26;;;;;;;13.18;9.10;;;2.50;99.90;;;;;;4979664;28;20198;-87
2024/01/07 17:08:52;;;;;;;12.95;9.30;;;;;;;;;;4980192;28;20240;-87
2024/01/07 17:11:20;;;;;;;17.55;14.02;;;2.40;99.90;;;;;;4978861;28;20202;-89
2024/01/07 17:18:25;;;;;;;12.70;10.07;;;2.80;99.90;;;;;;4977550;28;20211;-87
2024/01/07 17:20:52;;;;;;;10.32;7.97;;;2.10;99.90;;;;;;4879657;28;20205;-86
2024/01/07 17:26:08;;;;;;;10.07;8.00;;;;;;;;;;5723174;23;20715;-86
2024/01/07 17:28:38;;;;;;;10.30;7.57;;;2.10;99.90;;;;;;4969750;28;20693;-88
2024/01/07 17:31:04;;;;;;;12.48;8.77;;;2.80;99.90;;;;;;4967347;28;20295;-87
2024/01/07 17:33:32;;;;;;;9.70;8.60;;;;;;;;;;4961800;28;20201;-87
2024/01/07 17:39:50;;;;;;;8.38;7.32;;;3.00;99.90;;;;;;4972829;28;20260;-87
2024/01/07 17:42:39;;;;;;;15.13;7.95;;;2.60;99.90;;;;;;4988339;28;20372;-89
2024/01/07 17:58:29;;;;;;;14.13;10.65;;;;;;;;;;4987936;28;20212;-87
2024/01/07 18:00:55;;;;;;;10.93;8.25;;;;;;;;;;4991562;28;20169;-87
2024/01/07 18:03:22;;;;;;;13.63;8.02;;;2.00;99.90;;;;;;4991124;28;20193;-87
2024/01/07 18:05:49;;;;;;;13.95;8.02;;;3.10;99.90;;;;;;4972968;28;20628;-86
2024/01/07 18:08:15;;;;;;;10.65;8.57;;;3.30;99.90;;;;;;4963421;28;20260;-87
2024/01/07 18:10:42;;;;;;;12.07;8.35;;;3.20;99.90;;;;;;4967743;28;20654;-87
2024/01/07 18:13:14;;;;;;;10.68;7.65;;;;;;;;;;4964545;28;20251;-87
2024/01/07 18:15:40;;;;;;;10.18;7.68;;;;;;;;;;4967348;28;20208;-87
2024/01/07 18:18:08;;;;;;;8.88;7.30;;;;;;;;;;4966205;28;20300;-87
2024/01/07 18:20:34;;;;;;;10.95;8.00;;;;;;;;;;4966080;28;20184;-87
2024/01/07 18:23:00;;;;;;;11.25;7.60;;;;;;;;;;4949699;28;20557;-86
2024/01/07 18:25:26;;;;;;;11.25;7.68;;;;;;;;;;4973940;28;20256;-86
2024/01/07 18:27:52;;;;;;;11.82;8.25;;;1.80;99.90;;;;;;4972928;28;20598;-87
2024/01/07 18:30:17;;;;;;;8.23;7.37;;;;;;;;;;4972229;28;20189;-86
2024/01/07 18:32:43;;;;;;;8.57;7.60;;;1.70;99.90;;;;;;4973473;28;20531;-87
2024/01/07 18:35:09;;;;;;;12.13;7.77;;;1.50;99.90;;;;;;4973543;28;20200;-87
2024/01/07 18:37:37;;;;;;;9.77;7.77;;;1.90;99.90;;;;;;4975513;28;20184;-87
2024/01/07 18:40:03;;;;;;;11.48;8.50;;;1.50;99.90;;;;;;4992964;28;20466;-87
2024/01/07 18:42:30;;;;;;;11.63;8.57;;;1.70;99.90;;;;;;4986165;28;20208;-87
2024/01/07 18:44:56;;;;;;;10.40;7.57;;;;;;;;;;4972905;28;20217;-87
2024/01/07 18:47:22;;;;;;;11.20;8.27;;;;;;;;;;4984753;28;20193;-87
2024/01/07 18:49:48;;;;;;;10.35;7.70;;;2.00;99.90;;;;;;4992350;28;20236;-87
2024/01/07 18:52:14;;;;;;;10.57;7.80;;;1.50;99.90;;;;;;4990926;28;20196;-87
2024/01/07 18:54:41;;;;;;;9.65;6.80;;;;;;;;;;4971840;28;20216;-87
2024/01/07 18:57:08;;;;;;;9.18;7.90;;;2.40;99.90;;;;;;4973620;28;20187;-87
2024/01/07 18:59:33;;;;;;;13.23;7.68;;;2.20;99.90;;;;;;4963815;28;20185;-87
2024/01/07 19:01:59;;;;;;;9.60;8.00;;;2.70;99.90;;;;;;4981569;28;20181;-86
2024/01/07 19:04:26;;;;;;;10.07;8.17;;;;;;;;;;4965332;28;20204;-87
2024/01/07 19:06:51;;;;;;;10.80;7.35;;;2.60;99.90;;;;;;4966153;28;20455;-87
2024/01/07 19:09:19;;;;;;;10.20;7.60;;;;;;;;;;4960000;28;20519;-87
2024/01/07 19:11:45;;;;;;;9.80;6.90;;;;;;;;;;4983637;28;20246;-87
2024/01/07 19:14:11;;;;;;;13.20;7.72;;;1.80;99.90;;;;;;4988994;28;20216;-87
2024/01/07 19:16:40;;;;;;;9.25;7.20;;;1.70;99.90;;;;;;4991094;28;20212;-86
2024/01/07 19:19:07;;;;;;;9.13;7.65;;;1.90;99.90;;;;;;4982889;28;20192;-87
2024/01/07 19:21:33;;;;;;;11.27;7.97;;;1.10;99.90;;;;;;4968683;28;20195;-87
2024/01/07 19:24:00;;;;;;;9.50;7.90;;;1.60;99.90;;;;;;4975658;28;20204;-88
2024/01/07 19:26:27;;;;;;;11.68;8.13;;;1.50;99.90;;;;;;4973391;28;20255;-87
2024/01/07 19:28:57;;;;;;;10.38;7.47;;;1.50;99.90;;;;;;4968820;28;20192;-88
2024/01/07 19:31:24;;;;;;;9.55;7.43;;;1.50;99.90;;;;;;4970695;28;20638;-87
2024/01/07 19:33:50;;;;;;;7.90;6.05;;;1.60;99.90;;;;;;4969177;28;20542;-87
2024/01/07 19:36:15;;;;;;;7.00;6.20;;;1.60;99.90;;;;;;4964384;28;20189;-87
2024/01/07 19:38:42;;;;;;;7.20;6.37;;;1.50;99.90;;;;;;4951440;28;20443;-87
2024/01/07 19:41:08;;;;;;;7.28;6.53;;;1.60;99.90;;;;;;4952748;28;20247;-86
2024/01/07 19:43:34;;;;;;;8.13;6.53;;;1.40;99.90;;;;;;4965066;28;20609;-87
2024/01/07 19:46:00;;;;;;;7.22;6.53;;;1.10;99.90;;;;;;4985961;28;20272;-86
2024/01/07 19:48:26;;;;;;;6.77;5.40;;;1.30;99.90;;;;;;4972851;28;20181;-86
2024/01/07 19:50:52;;;;;;;9.32;7.07;;;1.50;99.90;;;;;;4968482;28;20192;-86
2024/01/07 19:53:18;;;;;;;8.87;6.57;;;1.40;99.90;;;;;;4966910;28;20231;-87
2024/01/07 19:55:51;;;;;;;8.00;6.47;;;1.30;99.90;;;;;;4970202;28;20213;-86
2024/01/07 19:58:19;;;;;;;9.07;7.10;;;1.20;99.90;;;;;;4968040;28;21076;-86
2024/01/07 20:00:45;;;;;;;7.53;6.30;;;;;;;;;;4963077;28;20653;-87
2024/01/07 20:03:11;;;;;;;8.25;6.95;;;1.00;99.90;;;;;;4965246;28;20181;-86
2024/01/07 20:05:37;;;;;;;8.07;6.47;;;1.50;99.90;;;;;;4964064;28;20216;-86
2024/01/07 20:08:04;;;;;;;7.60;6.87;;;0.90;99.90;;;;;;4959537;28;20191;-86
2024/01/07 20:10:30;;;;;;;10.13;6.93;;;1.00;99.90;;;;;;4947925;28;20196;-86
2024/01/07 20:12:58;;;;;;;8.90;6.40;;;1.00;99.90;;;;;;4968649;28;20180;-86
2024/01/07 20:15:25;;;;;;;8.48;6.93;;;0.80;99.90;;;;;;4964099;28;20215;-86
2024/01/07 20:17:50;;;;;;;8.20;6.53;;;1.30;99.90;;;;;;4966477;28;20514;-86
2024/01/07 20:20:16;;;;;;;7.93;7.07;;;0.90;99.90;;;;;;4968862;28;20196;-86
2024/01/07 20:22:42;;;;;;;10.23;7.10;;;0.50;99.90;;;;;;4966747;28;20197;-86
2024/01/07 20:25:09;;;;;;;6.88;6.00;;;0.90;99.90;;;;;;4961378;28;20534;-86
2024/01/07 20:27:34;;;;;;;9.40;7.05;;;1.10;99.90;;;;;;4965661;28;20287;-86
2024/01/07 20:30:00;;;;;;;6.73;6.03;;;1.10;99.90;;;;;;4967425;28;20279;-86
2024/01/07 20:32:26;;;;;;;7.37;6.57;;;1.10;99.90;;;;;;4969010;28;20811;-86
2024/01/07 20:34:54;;;;;;;9.55;6.82;;;1.20;99.90;;;;;;4957020;28;20220;-86
2024/01/07 20:37:19;;;;;;;7.60;6.10;;;1.40;99.90;;;;;;4976901;28;20208;-86
2024/01/07 20:39:45;;;;;;;7.50;6.53;;;;;;;;;;4979739;28;20201;-86